x

Sentry Shoal (46131) Wave Buoy

2:00 - Mon 2nd May 2016 All times are PDT. -7 hours from GMT.

  • Sig Wave height 0.3ft
  • Peak Period 3s
  • Wind
    7mph, 9mph gusts
  • Sea Temp 57°f
  • Ar Temp 62°f
  • Sea Pressure 1014.2mb
  • Sentry Shoal
  • Sentry Shoal

More Historic Weather Station data

Upgrade to MSW Pro to gain access to the past 30 days of data for over 8000 Wavebouys and Weather Stations around the globe.

Join Pro

Comparision Forecast

View Surf forecast
   
Seg 05/02 2:00 0.3ft 3s 7 9 mph 1014.2mb 57f 62f
1:00  -  2s 2 4 mph 1014.9mb 57f 61f
12:00  -  4s 2
mph
1015.3mb 58f 59f
11:00  -  2s 2
mph
1015.7mb 56f 57f
10:00  -  4s  -  2 mph 1016mb 56f 56f
9:00  -  4s 2
mph
1015.8mb 56f 55f
8:00  -  2s 4 7 mph 1015.9mb 55f 54f
7:00  -  5s 7
mph
1015.4mb 55f 53f
6:00 0.3ft 4s 7
mph
1015.2mb 55f 53f
5:00 0.3ft 4s 4 7 mph 1015mb 55f 54f
4:00 0.3ft 2s 7
mph
1014.7mb 55f 54f
3:00 0.3ft 4s 9 11 mph 1014.4mb 55f 54f
2:00 0.3ft 4s 9 11 mph 1014.2mb 55f 55f
1:00 0.3ft 5s 4 7 mph 1014.1mb 56f 55f
12:00 0.3ft 3s 4 7 mph 1014.2mb 55f 56f
Dom 05/01 11:00 0.3ft 3s 2 4 mph 1014.2mb 56f 58f
10:00  -  3s 4 7 mph 1014.4mb 57f 58f
9:00 0.3ft 3s 2 4 mph 1014.4mb 58f 59f
8:00 0.3ft 2s 4 7 mph 1014.5mb 58f 60f
7:00 0.3ft 2s 4
mph
1014.9mb 59f 60f
6:00 0.3ft 2s 2 4 mph 1015.6mb 59f 60f
5:00 0.3ft 3s 2
mph
1016.5mb 59f 60f
4:00 0.3ft 3s 4
mph
1017.4mb 59f 59f
3:00 0.3ft 3s 2 4 mph 1018.3mb 57f 58f
2:00  -  3s 4
mph
1019.2mb 57f 57f
1:00 0.3ft 5s 2 4 mph 1020.2mb 55f 57f
12:00 0.3ft 5s 2 4 mph 1021.3mb 55f 57f
11:00 0.3ft 2s  -  2 mph 1022.1mb 55f 55f
10:00 0.3ft 2s 4
mph
1022.9mb 54f 53f
9:00 0.3ft 2s 4 7 mph 1023.6mb 53f 53f
8:00 0.3ft 2s 7 9 mph 1024.3mb 53f 52f
7:00 0.3ft 2s 9
mph
1024.7mb 53f 53f
6:00 0.3ft 4s 9 11 mph 1025mb 53f 52f
5:00 0.3ft 4s 9 11 mph 1024.9mb 53f 53f
4:00 0.3ft 2s 7 9 mph 1025.2mb 54f 53f
3:00 0.3ft 4s 9 11 mph 1025.3mb 54f 53f
2:00 0.3ft 4s 9
mph
1025.6mb 54f 53f
1:00 0.3ft 5s 9 11 mph 1025.9mb 54f 55f
12:00 0.3ft 3s 4 7 mph 1026.2mb 54f 54f
Sáb 04/30 11:00  -  3s 2
mph
1026.4mb 54f 55f
10:00 0.3ft 3s 4
mph
1026.5mb 55f 56f
9:00 0.3ft 2s 2 4 mph 1026.5mb 55f 57f
8:00 0.3ft 2s 4
mph
1026.5mb 55f 57f
7:00 0.3ft 3s 4
mph
1026.6mb 56f 58f
6:00 0.3ft 3s 4
mph
1027.1mb 58f 58f
5:00 0.3ft 3s  -  2 mph 1027.6mb 58f 59f
3:00 0.3ft 2s  -  2 mph 1028.5mb 56f 56f
2:00 0.3ft 3s 2 4 mph 1028.7mb 56f 53f
1:00 0.3ft 3s 2
mph
1029.1mb 55f 53f
12:00 0.3ft 5s 2
mph
1029.1mb 54f 52f
11:00 0.3ft 2s 2
mph
1029.3mb 53f 51f
10:00 0.3ft 2s 4
mph
1029.3mb 53f 50f
9:00 0.7ft 2s 7 9 mph 1029.1mb 52f 49f
8:00 1ft 2s 9 11 mph 1028.5mb 52f 49f
7:00 1.3ft 2s 11 13 mph 1027.9mb 52f 48f
6:00 1.3ft 2s 16 18 mph 1027.4mb 52f 48f
5:00 1.3ft 3s 13 16 mph 1026.7mb 52f 49f
4:00 1.3ft 3s 13 16 mph 1026.2mb 52f 50f
3:00 1.3ft 3s 13 18 mph 1025.8mb 52f 50f
2:00 1.3ft 2s 16 18 mph 1025mb 52f 51f
1:00 1.3ft 3s 13 16 mph 1024.2mb 52f 51f
12:00 2ft 3s 16 20 mph 1023.7mb 53f 52f
Sex 04/29 11:00 1.6ft 3s 18 22 mph 1023.3mb 53f 53f
10:00 1.6ft 3s 18 20 mph 1022.7mb 53f 54f
9:00 2ft 4s 18 22 mph 1022.1mb 53f 54f
8:00  -   -  20
mph
1021.2mb - 55f
7:00 2ft 3s 18 20 mph 1020.9mb 54f 56f
6:00 2ft 3s 20 25 mph 1020.5mb 54f 57f
5:00 2ft 3s 20 22 mph 1020.2mb 54f 57f
4:00 2ft 4s 20 22 mph 1020mb 54f 56f
3:00 2ft 3s 18 20 mph 1019.9mb 54f 56f
2:00 1.6ft 3s 16 18 mph 1019.8mb 53f 55f
1:00 2ft 3s 18 22 mph 1019.6mb 52f 54f
12:00 2.5ft 3s 16 18 mph 1019.6mb 52f 54f
11:00 2ft 4s 16 27 mph 1019.7mb 52f 53f
10:00 1.6ft 3s 18 22 mph 1019.6mb 51f 52f
9:00 2.5ft 3s 18 22 mph 1019.4mb 51f 51f
8:00 1.6ft 3s 20 25 mph 1019mb 51f 51f
7:00 1ft 2s 20 22 mph 1018.3mb 52f 51f
6:00 1ft 2s 16 18 mph 1018.6mb 52f 51f
5:00 0.7ft 2s 13 18 mph 1018.4mb 52f 51f
4:00 1ft 2s 13 16 mph 1018.3mb 53f 52f
3:00 1ft 2s 16 18 mph 1018.3mb 53f 52f
2:00 1ft 3s 13 16 mph 1018.1mb 53f 53f
1:00 1ft 2s 16 18 mph 1018mb 53f 53f
12:00 0.7ft 2s 16 20 mph 1017.8mb 54f 54f
Qui 04/28 11:00 0.7ft 2s 13 16 mph 1017.5mb 54f 54f